createdAt,value
2018-08-16T00:01:33.462Z,4.13
2018-08-16T00:04:01.894Z,4.10
2018-08-16T00:06:30.326Z,4.10
2018-08-16T00:08:59.084Z,4.07
2018-08-16T00:11:27.781Z,4.20
2018-08-16T00:13:56.424Z,3.87
2018-08-16T00:16:24.898Z,3.60
2018-08-16T00:18:53.355Z,4.43
2018-08-16T00:21:21.826Z,4.03
2018-08-16T00:23:50.668Z,4.17
2018-08-16T00:26:19.189Z,4.33
2018-08-16T00:28:47.619Z,4.20
2018-08-16T00:31:16.040Z,4.30
2018-08-16T00:33:44.518Z,4.03
2018-08-16T00:36:13.085Z,5.10
2018-08-16T00:38:41.495Z,4.70
2018-08-16T00:41:09.948Z,4.27
2018-08-16T00:43:38.537Z,3.90
2018-08-16T00:46:07.047Z,4.37
2018-08-16T00:48:35.511Z,4.33
2018-08-16T00:51:04.295Z,4.53
2018-08-16T00:53:32.691Z,4.20
2018-08-16T00:56:01.142Z,4.57
2018-08-16T00:58:29.663Z,4.70
2018-08-16T01:00:58.197Z,4.77
2018-08-16T01:03:26.702Z,4.50
2018-08-16T01:05:55.142Z,4.90
2018-08-16T01:08:23.550Z,4.67
2018-08-16T01:13:25.608Z,5.00
2018-08-16T01:15:54.088Z,4.50
2018-08-16T01:18:22.528Z,4.30
2018-08-16T01:20:51.306Z,5.07
2018-08-16T01:23:19.689Z,5.03
2018-08-16T01:25:48.124Z,4.50
2018-08-16T01:28:16.596Z,4.87
2018-08-16T01:30:45.064Z,4.30
2018-08-16T01:33:13.507Z,4.20
2018-08-16T01:35:42.147Z,4.97
2018-08-16T01:38:10.739Z,4.70
2018-08-16T01:40:39.502Z,4.73
2018-08-16T01:43:07.998Z,4.43
2018-08-16T01:45:36.458Z,4.70
2018-08-16T01:48:04.956Z,4.10
2018-08-16T01:50:33.691Z,4.43
2018-08-16T01:53:02.124Z,4.40
2018-08-16T01:55:30.547Z,4.13
2018-08-16T01:57:59.003Z,4.23
2018-08-16T02:00:27.415Z,3.83
2018-08-16T02:02:55.854Z,4.40
2018-08-16T02:05:24.311Z,4.40
2018-08-16T02:07:52.748Z,4.13
2018-08-16T02:10:21.360Z,4.50
2018-08-16T02:12:49.856Z,4.30
2018-08-16T02:15:18.270Z,3.87
2018-08-16T02:17:46.827Z,4.20
2018-08-16T02:20:15.538Z,4.50
2018-08-16T02:22:44.798Z,5.00
2018-08-16T02:25:13.450Z,4.53
2018-08-16T02:27:41.906Z,4.37
2018-08-16T02:30:10.634Z,4.30
2018-08-16T02:32:39.558Z,4.30
2018-08-16T02:35:08.120Z,4.27
2018-08-16T02:37:36.568Z,4.20
2018-08-16T02:40:06.471Z,4.00
2018-08-16T02:42:34.899Z,4.10
2018-08-16T02:45:03.313Z,3.83
2018-08-16T02:47:31.813Z,4.30
2018-08-16T02:50:00.439Z,4.23
2018-08-16T02:52:28.983Z,4.50
2018-08-16T02:54:57.506Z,4.33
2018-08-16T02:57:26.198Z,3.87
2018-08-16T02:59:54.620Z,4.10
2018-08-16T03:02:23.063Z,4.30
2018-08-16T03:04:51.482Z,4.23
2018-08-16T03:07:19.994Z,3.93
2018-08-16T03:09:48.481Z,3.67
2018-08-16T03:12:16.964Z,4.17
2018-08-16T03:14:45.366Z,3.77
2018-08-16T03:17:13.808Z,4.17
2018-08-16T03:19:42.218Z,4.00
2018-08-16T03:22:10.675Z,3.80
2018-08-16T03:24:39.076Z,4.17
2018-08-16T03:27:07.538Z,3.80
2018-08-16T03:29:36.009Z,3.90
2018-08-16T03:32:04.514Z,4.07
2018-08-16T03:34:32.943Z,4.27
2018-08-16T03:37:01.412Z,3.80
2018-08-16T03:39:29.828Z,3.20
2018-08-16T03:41:58.422Z,4.07
2018-08-16T03:44:26.866Z,4.23
2018-08-16T03:46:55.294Z,3.90
2018-08-16T03:49:23.818Z,4.47
2018-08-16T03:51:52.598Z,3.67
2018-08-16T03:54:21.038Z,4.17
2018-08-16T03:56:49.446Z,4.10
2018-08-16T03:59:17.941Z,4.10
2018-08-16T04:01:46.379Z,3.57
2018-08-16T04:04:14.867Z,4.60
2018-08-16T04:06:43.273Z,4.70
2018-08-16T04:09:11.721Z,4.47
2018-08-16T04:11:40.159Z,6.37
2018-08-16T04:14:08.595Z,5.30
2018-08-16T04:16:37.007Z,4.63
2018-08-16T04:19:05.463Z,4.57
2018-08-16T04:21:33.889Z,4.20
2018-08-16T04:24:02.348Z,4.03
2018-08-16T04:26:30.806Z,4.20
2018-08-16T04:28:59.462Z,3.93
2018-08-16T04:31:28.119Z,4.20
2018-08-16T04:33:56.888Z,4.37
2018-08-16T04:36:25.329Z,4.57
2018-08-16T04:38:53.831Z,4.20
2018-08-16T04:41:22.271Z,3.93
2018-08-16T04:43:50.715Z,4.63
2018-08-16T04:46:19.206Z,4.37
2018-08-16T04:48:47.987Z,4.30
2018-08-16T04:51:16.468Z,4.20
2018-08-16T04:53:44.900Z,3.80
2018-08-16T04:56:13.312Z,3.60
2018-08-16T04:58:41.757Z,3.77
2018-08-16T05:01:10.393Z,3.80
2018-08-16T05:03:38.840Z,3.43
2018-08-16T05:06:07.307Z,4.23
2018-08-16T05:08:35.895Z,3.97
2018-08-16T05:11:04.369Z,3.43
2018-08-16T05:13:33.103Z,3.70
2018-08-16T05:16:01.526Z,3.70
2018-08-16T05:18:30.246Z,3.47
2018-08-16T05:20:58.759Z,3.67
2018-08-16T05:23:27.375Z,3.57
2018-08-16T05:25:55.834Z,3.83
2018-08-16T05:28:24.262Z,3.90
2018-08-16T05:30:52.681Z,3.40
2018-08-16T05:33:21.150Z,3.67
2018-08-16T05:35:49.557Z,4.07
2018-08-16T05:38:18.009Z,3.97
2018-08-16T05:40:46.425Z,3.57
2018-08-16T05:43:15.010Z,4.10
2018-08-16T05:45:43.861Z,3.47
2018-08-16T05:48:12.348Z,3.90
2018-08-16T05:50:40.983Z,3.70
2018-08-16T05:53:09.606Z,4.00
2018-08-16T05:55:38.092Z,3.80
2018-08-16T05:58:06.964Z,3.63
2018-08-16T06:00:35.470Z,4.00
2018-08-16T06:03:03.847Z,4.70
2018-08-16T06:05:32.313Z,4.43
2018-08-16T06:08:00.726Z,3.90
2018-08-16T06:10:29.182Z,4.33
2018-08-16T06:12:57.960Z,3.70
2018-08-16T06:15:27.022Z,4.20
2018-08-16T06:17:55.588Z,4.00
2018-08-16T06:20:24.027Z,4.63
2018-08-16T06:22:52.443Z,4.13
2018-08-16T06:25:21.094Z,4.50
2018-08-16T06:27:49.501Z,3.80
2018-08-16T06:30:18.666Z,3.87
2018-08-16T06:32:47.477Z,4.20
2018-08-16T06:35:16.198Z,4.43
2018-08-16T06:37:44.677Z,3.90
2018-08-16T06:40:15.412Z,4.00
2018-08-16T06:42:44.049Z,3.77
2018-08-16T06:45:12.481Z,4.30
2018-08-16T06:47:40.938Z,3.57
2018-08-16T06:50:09.680Z,4.00
2018-08-16T06:52:38.164Z,4.40
2018-08-16T06:55:07.484Z,4.00
2018-08-16T06:57:35.917Z,3.53
2018-08-16T07:00:05.162Z,3.77
2018-08-16T07:02:33.717Z,4.40
2018-08-16T07:05:02.149Z,3.83
2018-08-16T07:07:30.567Z,3.57
2018-08-16T07:09:59.175Z,3.80
2018-08-16T07:12:27.669Z,3.27
2018-08-16T07:14:56.262Z,2.87
2018-08-16T07:17:25.299Z,2.40
2018-08-16T07:19:53.790Z,2.07
2018-08-16T07:22:25.175Z,2.20
2018-08-16T07:24:53.739Z,2.40
2018-08-16T07:27:22.276Z,2.90
2018-08-16T07:29:51.065Z,2.40
2018-08-16T07:32:19.741Z,2.30
2018-08-16T07:34:48.228Z,2.47
2018-08-16T07:37:16.664Z,2.20
2018-08-16T07:39:45.122Z,2.20
2018-08-16T07:42:13.630Z,2.20
2018-08-16T07:44:42.096Z,2.33
2018-08-16T07:47:10.616Z,2.40
2018-08-16T07:49:39.187Z,2.40
2018-08-16T07:52:07.735Z,2.10
2018-08-16T07:54:36.447Z,1.97
2018-08-16T07:57:05.175Z,2.00
2018-08-16T07:59:33.838Z,1.87
2018-08-16T08:02:02.365Z,2.40
2018-08-16T08:04:30.832Z,2.90
2018-08-16T08:06:59.629Z,2.13
2018-08-16T08:09:28.092Z,2.00
2018-08-16T08:11:56.799Z,2.03
2018-08-16T08:14:25.270Z,2.30
2018-08-16T08:16:53.868Z,2.10
2018-08-16T08:19:25.112Z,2.30
2018-08-16T08:21:56.551Z,2.03
2018-08-16T08:24:26.678Z,1.70
2018-08-16T08:26:55.244Z,2.07
2018-08-16T08:29:25.646Z,1.90
2018-08-16T08:31:58.781Z,2.17
2018-08-16T08:34:28.395Z,2.20
2018-08-16T08:37:08.318Z,2.23
2018-08-16T08:39:36.754Z,2.30
2018-08-16T08:42:05.182Z,2.20
2018-08-16T08:44:33.802Z,2.47
2018-08-16T08:47:02.227Z,2.33
2018-08-16T08:49:30.656Z,2.37
2018-08-16T08:51:59.327Z,2.20
2018-08-16T08:54:42.345Z,2.43
2018-08-16T08:57:23.011Z,2.03
2018-08-16T08:59:51.446Z,2.00
2018-08-16T09:02:24.135Z,1.80
2018-08-16T09:04:52.651Z,2.47
2018-08-16T09:07:21.877Z,2.20
2018-08-16T09:11:05.620Z,2.27
2018-08-16T09:13:45.738Z,1.90
2018-08-16T09:16:18.534Z,2.40
2018-08-16T09:18:47.470Z,2.50
2018-08-16T09:21:17.079Z,2.20
2018-08-16T09:23:46.242Z,2.40
2018-08-16T09:26:20.044Z,2.23
2018-08-16T09:28:48.523Z,7.70
2018-08-16T09:31:28.678Z,11.20
2018-08-16T09:34:08.299Z,2.53
2018-08-16T09:36:37.349Z,4.28
2018-08-16T09:39:07.289Z,4.27
2018-08-16T09:41:35.902Z,3.33
2018-08-16T09:44:04.553Z,2.40
2018-08-16T09:46:58.095Z,2.73
2018-08-16T09:49:27.205Z,2.22
2018-08-16T09:51:56.132Z,2.30
2018-08-16T09:54:25.090Z,2.67
2018-08-16T09:56:55.280Z,2.23
2018-08-16T09:59:23.993Z,2.50
2018-08-16T10:01:52.849Z,2.57
2018-08-16T10:04:21.305Z,2.60
2018-08-16T10:06:50.049Z,2.30
2018-08-16T10:09:20.023Z,2.33
2018-08-16T10:11:49.185Z,2.40
2018-08-16T10:14:18.242Z,2.10
2018-08-16T10:16:46.998Z,2.13
2018-08-16T10:19:15.664Z,2.30
2018-08-16T10:21:44.510Z,2.23
2018-08-16T10:24:13.404Z,2.37
2018-08-16T10:26:41.935Z,2.27
2018-08-16T10:29:11.146Z,2.37
2018-08-16T10:31:39.977Z,2.07
2018-08-16T10:34:08.690Z,2.23
2018-08-16T10:36:37.139Z,2.07
2018-08-16T10:39:09.371Z,2.40
2018-08-16T10:41:38.127Z,2.30
2018-08-16T10:44:06.847Z,1.83
2018-08-16T10:46:35.303Z,2.10
2018-08-16T10:49:04.049Z,2.57
2018-08-16T10:51:32.787Z,2.25
2018-08-16T10:54:01.188Z,2.50
2018-08-16T10:56:29.916Z,4.00
2018-08-16T10:58:58.903Z,3.02
2018-08-16T11:01:27.869Z,4.35
2018-08-16T11:03:56.743Z,3.30
2018-08-16T11:06:25.158Z,6.10
2018-08-16T11:08:53.889Z,4.37
2018-08-16T11:11:22.877Z,4.58
2018-08-16T11:13:51.896Z,3.52
2018-08-16T11:16:21.394Z,3.62
2018-08-16T11:18:50.187Z,3.93
2018-08-16T11:21:19.040Z,3.90
2018-08-16T11:23:47.744Z,3.00
2018-08-16T11:26:16.461Z,2.80
2018-08-16T11:28:45.159Z,2.50
2018-08-16T11:31:14.018Z,2.57
2018-08-16T11:33:42.743Z,3.17
2018-08-16T11:36:11.494Z,4.10
2018-08-16T11:38:40.177Z,2.70
2018-08-16T11:41:08.950Z,2.93
2018-08-16T11:43:37.522Z,3.20
2018-08-16T11:46:06.299Z,3.13
2018-08-16T11:48:35.010Z,2.50
2018-08-16T11:51:03.766Z,2.73
2018-08-16T11:53:32.496Z,2.43
2018-08-16T11:56:01.206Z,2.30
2018-08-16T11:58:29.973Z,2.10
2018-08-16T12:00:58.878Z,2.30
2018-08-16T12:03:27.356Z,2.30
2018-08-16T12:05:56.067Z,2.30
2018-08-16T12:08:24.806Z,1.93
2018-08-16T12:10:53.807Z,2.08
2018-08-16T12:13:22.688Z,2.30
2018-08-16T12:15:51.463Z,2.27
2018-08-16T12:18:21.011Z,2.00
2018-08-16T12:20:49.714Z,2.40
2018-08-16T12:23:18.423Z,2.00
2018-08-16T12:25:47.151Z,2.07
2018-08-16T12:28:15.874Z,1.90
2018-08-16T12:30:44.588Z,2.10
2018-08-16T12:33:13.351Z,1.97
2018-08-16T12:35:42.084Z,2.30
2018-08-16T12:38:10.760Z,1.90
2018-08-16T12:40:39.295Z,1.93
2018-08-16T12:43:08.194Z,2.03
2018-08-16T12:45:36.912Z,1.80
2018-08-16T12:48:05.943Z,1.90
2018-08-16T12:50:34.942Z,1.80
2018-08-16T12:53:03.943Z,1.87
2018-08-16T12:55:32.919Z,1.87
2018-08-16T12:58:01.991Z,2.08
2018-08-16T13:00:31.265Z,2.25
2018-08-16T13:02:59.961Z,2.00
2018-08-16T13:05:29.010Z,1.80
2018-08-16T13:07:58.043Z,2.20
2018-08-16T13:10:27.026Z,2.10
2018-08-16T13:12:56.026Z,1.90
2018-08-16T13:15:25.028Z,1.95
2018-08-16T13:17:53.978Z,1.90
2018-08-16T13:20:23.048Z,2.15
2018-08-16T13:22:52.033Z,1.98
2018-08-16T13:25:21.300Z,2.20
2018-08-16T13:27:50.014Z,1.90
2018-08-16T13:30:18.998Z,1.92
2018-08-16T13:32:48.134Z,1.62
2018-08-16T13:35:17.163Z,1.85
2018-08-16T13:37:45.908Z,2.13
2018-08-16T13:40:14.678Z,1.90
2018-08-16T13:42:43.477Z,1.93
2018-08-16T13:45:12.254Z,2.33
2018-08-16T13:47:40.943Z,2.17
2018-08-16T13:50:09.675Z,1.83
2018-08-16T13:52:38.387Z,2.00
2018-08-16T13:55:07.280Z,1.80
2018-08-16T13:57:36.251Z,1.60
2018-08-16T14:00:05.941Z,2.10
2018-08-16T14:02:34.691Z,2.03
2018-08-16T14:05:03.430Z,1.73
2018-08-16T14:07:32.189Z,1.90
2018-08-16T14:10:01.326Z,1.80
2018-08-16T14:12:30.046Z,2.00
2018-08-16T14:14:59.110Z,1.67
2018-08-16T14:17:27.534Z,1.60
2018-08-16T14:19:56.278Z,1.90
2018-08-16T14:22:25.028Z,1.93
2018-08-16T14:24:54.043Z,1.70
2018-08-16T14:27:22.751Z,1.70
2018-08-16T14:29:51.522Z,1.57
2018-08-16T14:32:21.257Z,1.72
2018-08-16T14:34:50.143Z,1.47
2018-08-16T14:37:19.130Z,2.20
2018-08-16T14:39:48.142Z,1.80
2018-08-16T14:42:17.177Z,1.98
2018-08-16T14:44:46.243Z,1.60
2018-08-16T14:47:15.283Z,1.60
2018-08-16T14:49:44.009Z,1.47
2018-08-16T14:52:12.711Z,2.10
2018-08-16T14:54:41.411Z,1.70
2018-08-16T14:57:10.217Z,1.90
2018-08-16T14:59:39.230Z,2.00
2018-08-16T15:02:08.357Z,2.05
2018-08-16T15:04:37.118Z,2.10
2018-08-16T15:07:06.064Z,1.90
2018-08-16T15:09:34.785Z,1.90
2018-08-16T15:12:03.726Z,1.90
2018-08-16T15:14:32.464Z,2.07
2018-08-16T15:17:01.159Z,1.50
2018-08-16T15:19:29.696Z,1.57
2018-08-16T15:21:58.375Z,1.70
2018-08-16T15:24:27.107Z,1.72
2018-08-16T15:26:56.119Z,2.02
2018-08-16T15:29:24.833Z,2.30
2018-08-16T15:31:53.824Z,1.80
2018-08-16T15:34:22.503Z,1.90
2018-08-16T15:36:51.271Z,2.00
2018-08-16T15:39:21.288Z,1.82
2018-08-16T15:41:50.306Z,2.10
2018-08-16T15:44:19.372Z,1.77
2018-08-16T15:46:48.136Z,1.67
2018-08-16T15:49:17.149Z,2.10
2018-08-16T15:51:46.146Z,1.47
2018-08-16T15:54:15.150Z,1.82
2018-08-16T15:56:43.877Z,2.10
2018-08-16T15:59:12.587Z,2.30
2018-08-16T16:01:41.538Z,1.83
2018-08-16T16:04:10.274Z,1.97
2018-08-16T16:06:39.304Z,1.90
2018-08-16T16:09:09.136Z,2.47
2018-08-16T16:11:37.565Z,2.20
2018-08-16T16:14:06.905Z,2.70
2018-08-16T16:16:35.707Z,2.77
2018-08-16T16:19:04.423Z,2.00
2018-08-16T16:21:33.319Z,2.85
2018-08-16T16:24:02.335Z,3.47
2018-08-16T16:26:31.361Z,2.95
2018-08-16T16:29:00.336Z,3.42
2018-08-16T16:31:29.377Z,3.70
2018-08-16T16:33:58.368Z,3.35
2018-08-16T16:36:27.398Z,3.85
2018-08-16T16:38:56.394Z,2.83
2018-08-16T16:41:25.468Z,2.77
2018-08-16T16:43:54.292Z,2.97
2018-08-16T16:46:23.323Z,3.33
2018-08-16T16:48:52.676Z,3.22
2018-08-16T16:51:21.769Z,2.70
2018-08-16T16:53:50.440Z,4.00
2018-08-16T16:56:19.414Z,2.65
2018-08-16T16:58:48.418Z,2.70
2018-08-16T17:01:17.435Z,2.55
2018-08-16T17:03:46.502Z,2.67
2018-08-16T17:06:15.236Z,2.70
2018-08-16T17:08:43.943Z,3.17
2018-08-16T17:11:12.707Z,2.00
2018-08-16T17:13:41.704Z,3.17
2018-08-16T17:16:10.579Z,4.10
2018-08-16T17:18:39.419Z,3.23
2018-08-16T17:21:08.375Z,3.87
2018-08-16T17:23:37.440Z,4.05
2018-08-16T17:26:06.634Z,4.03
2018-08-16T17:28:35.466Z,5.92
2018-08-16T17:31:04.511Z,2.98
2018-08-16T17:33:33.202Z,6.13
2018-08-16T17:36:01.979Z,5.43
2018-08-16T17:38:30.697Z,4.57
2018-08-16T17:40:59.442Z,7.43
2018-08-16T17:43:28.354Z,4.87
2018-08-16T17:45:57.582Z,5.40
2018-08-16T17:48:26.275Z,4.90
2018-08-16T17:50:55.004Z,3.30
2018-08-16T17:53:23.810Z,4.80
2018-08-16T17:55:52.510Z,3.60
2018-08-16T17:58:21.576Z,4.00
2018-08-16T18:00:50.526Z,4.43
2018-08-16T18:03:19.560Z,5.75
2018-08-16T18:05:48.760Z,5.23
2018-08-16T18:08:17.559Z,5.33
2018-08-16T18:10:46.267Z,18.53
2018-08-16T18:13:15.096Z,10.77
2018-08-16T18:15:43.904Z,15.10
2018-08-16T18:18:12.581Z,5.13
2018-08-16T18:20:41.379Z,5.50
2018-08-16T18:23:10.142Z,4.27
2018-08-16T18:25:38.889Z,5.27
2018-08-16T18:28:07.580Z,4.60
2018-08-16T18:30:36.680Z,4.50
2018-08-16T18:33:05.555Z,3.70
2018-08-16T18:35:34.002Z,4.27
2018-08-16T18:38:02.759Z,3.70
2018-08-16T18:40:31.588Z,2.95
2018-08-16T18:43:00.551Z,3.25
2018-08-16T18:45:29.621Z,3.20
2018-08-16T18:47:58.294Z,3.37
2018-08-16T18:50:27.099Z,3.53
2018-08-16T18:52:55.821Z,3.77
2018-08-16T18:55:24.507Z,3.43
2018-08-16T18:57:53.506Z,5.10
2018-08-16T19:00:22.047Z,4.00
2018-08-16T19:02:50.743Z,3.63
2018-08-16T19:05:19.463Z,3.03
2018-08-16T19:07:48.804Z,3.62
2018-08-16T19:10:17.676Z,3.73
2018-08-16T19:12:46.594Z,3.97
2018-08-16T19:15:15.694Z,3.42
2018-08-16T19:17:44.718Z,4.30
2018-08-16T19:20:13.567Z,4.10
2018-08-16T19:22:42.536Z,3.98
2018-08-16T19:25:11.686Z,3.98
2018-08-16T19:27:40.464Z,3.70
2018-08-16T19:30:09.218Z,3.87
2018-08-16T19:32:37.975Z,3.70
2018-08-16T19:35:06.757Z,3.57
2018-08-16T19:37:35.469Z,4.20
2018-08-16T19:40:04.683Z,4.07
2018-08-16T19:42:33.671Z,4.33
2018-08-16T19:45:02.243Z,4.43
2018-08-16T19:47:31.085Z,4.37
2018-08-16T19:49:59.925Z,4.00
2018-08-16T19:52:28.739Z,3.60
2018-08-16T19:54:57.428Z,3.60
2018-08-16T19:57:26.014Z,3.50
2018-08-16T19:59:54.836Z,3.60
2018-08-16T20:02:23.560Z,3.57
2018-08-16T20:04:52.588Z,3.40
2018-08-16T20:07:22.092Z,3.02
2018-08-16T20:09:50.902Z,3.50
2018-08-16T20:12:19.603Z,3.10
2018-08-16T20:14:48.970Z,3.40
2018-08-16T20:17:17.883Z,3.10
2018-08-16T20:19:46.614Z,3.50
2018-08-16T20:22:18.254Z,3.62
2018-08-16T20:24:47.673Z,3.57
2018-08-16T20:27:16.783Z,3.05
2018-08-16T20:29:46.539Z,4.57
2018-08-16T20:32:15.765Z,4.40
2018-08-16T20:34:45.054Z,3.72
2018-08-16T20:37:13.581Z,3.10
2018-08-16T20:39:42.303Z,3.20
2018-08-16T20:42:11.093Z,3.23
2018-08-16T20:44:39.798Z,3.20
2018-08-16T20:47:09.882Z,3.17
2018-08-16T20:49:38.639Z,2.93
2018-08-16T20:52:07.718Z,2.87
2018-08-16T20:54:36.152Z,3.27
2018-08-16T20:57:04.822Z,2.57
2018-08-16T20:59:33.813Z,3.12
2018-08-16T21:02:02.242Z,2.80
2018-08-16T21:04:31.010Z,3.03
2018-08-16T21:06:59.638Z,2.90
2018-08-16T21:09:28.043Z,3.50
2018-08-16T21:11:56.687Z,4.93
2018-08-16T21:14:25.634Z,6.90
2018-08-16T21:16:54.332Z,5.80
2018-08-16T21:19:23.063Z,3.63
2018-08-16T21:21:51.828Z,3.40
2018-08-16T21:24:21.599Z,3.35
2018-08-16T21:26:50.112Z,3.40
2018-08-16T21:29:18.719Z,3.00
2018-08-16T21:31:47.999Z,2.70
2018-08-16T21:34:19.555Z,3.03
2018-08-16T21:36:48.011Z,2.90
2018-08-16T21:39:16.701Z,2.83
2018-08-16T21:41:45.145Z,2.90
2018-08-16T21:44:13.830Z,2.80
2018-08-16T21:46:42.287Z,2.80
2018-08-16T21:49:11.116Z,2.80
2018-08-16T21:51:39.870Z,2.67
2018-08-16T21:54:08.314Z,3.22
2018-08-16T21:56:37.219Z,2.90
2018-08-16T21:59:05.901Z,3.30
2018-08-16T22:01:34.958Z,2.85
2018-08-16T22:04:03.649Z,2.50
2018-08-16T22:06:43.451Z,2.70
2018-08-16T22:09:12.879Z,3.90
2018-08-16T22:11:41.839Z,8.08
2018-08-16T22:14:10.263Z,4.63
2018-08-16T22:16:38.706Z,3.73
2018-08-16T22:19:07.192Z,3.33
2018-08-16T22:21:36.166Z,3.10
2018-08-16T22:24:05.004Z,3.00
2018-08-16T22:26:33.780Z,2.90
2018-08-16T22:29:02.197Z,3.30
2018-08-16T22:31:30.839Z,2.90
2018-08-16T22:33:59.279Z,3.30
2018-08-16T22:36:28.211Z,3.40
2018-08-16T22:38:56.821Z,2.60
2018-08-16T22:41:25.271Z,2.97
2018-08-16T22:43:53.767Z,3.10
2018-08-16T22:46:22.195Z,3.27
2018-08-16T22:48:50.770Z,3.00
2018-08-16T22:51:19.232Z,3.17
2018-08-16T22:53:47.760Z,2.70
2018-08-16T22:56:16.383Z,3.17
2018-08-16T22:58:47.644Z,2.87
2018-08-16T23:01:17.118Z,3.43
2018-08-16T23:03:47.522Z,3.60
2018-08-16T23:06:16.608Z,3.33
2018-08-16T23:08:45.126Z,3.63
2018-08-16T23:11:13.908Z,3.30
2018-08-16T23:13:42.510Z,3.80
2018-08-16T23:16:11.018Z,3.80
2018-08-16T23:18:39.705Z,3.50
2018-08-16T23:21:08.206Z,3.63
2018-08-16T23:23:36.827Z,3.40
2018-08-16T23:26:05.395Z,3.60
2018-08-16T23:28:34.136Z,3.92
2018-08-16T23:31:02.835Z,3.87
2018-08-16T23:33:31.367Z,3.67
2018-08-16T23:35:59.875Z,3.60
2018-08-16T23:38:28.576Z,3.87
2018-08-16T23:40:57.290Z,4.53
2018-08-16T23:43:26.172Z,3.90
2018-08-16T23:45:54.846Z,4.10
2018-08-16T23:48:32.711Z,4.60
2018-08-16T23:51:01.313Z,4.10
2018-08-16T23:53:30.204Z,4.17
2018-08-16T23:55:59.064Z,4.07
2018-08-16T23:58:28.159Z,4.53
